Leedy, Mississippi
Current Conditions -  °F | °C
As of 3:15 PM on Friday 31 Oct 2014 (Local Time) from KCRX Reporting Station
Haze Haze  
Wind Chill: 54°   Ceiling: 3800
Heat Index: 54°   Visibility: 6mi
Dew Point: 41°   Wind: 13mph
Humidity: 62%   Direction: 330°NNW
Pressure: 30.08"   Gusts: 23mph
Location:  34.9032°N, 88.3178°W
Report Text: KCRX 312015Z AUTO 33011G20KT 6SM HZ SCT031 OVC038 12/05 A3008 RMK AO2
Loading
Personal Weather Stations






























Interactive Weather Map
Tropical Storm Tracking
New forecast layout! Learn more

10-Day Weather Forecast

Advertisements
Track Severe Weather on mobile